Terminal Aerodrome Forecast
Issued by NWS

Home | Current Version | Previous Version | Graphics & Text | Print | Product List | Glossary On
Versions: 1 2 3 4 5 6 7 8 9 10 11 12 13 14 15 16 17
000
FTUS43 KBIS 202335
TAFDIK
TAF
KDIK 202335Z 2100/2124 04011G19KT P6SM FEW250
     FM210200 03007KT P6SM FEW200
     FM210500 17004KT P6SM SCT200
     FM210900 25004KT P6SM SCT200
     FM211600 31014G23KT P6SM SCT110=

USA.gov is the U.S. government's official web portal to all federal, state and local government web resources and services.